createdAt,value
2018-02-15T00:02:03.162Z,61.26
2018-02-15T00:04:29.029Z,61.01
2018-02-15T00:06:54.904Z,61.18
2018-02-15T00:09:20.757Z,61.25
2018-02-15T00:11:47.474Z,61.49
2018-02-15T00:14:13.350Z,61.71
2018-02-15T00:16:42.265Z,61.24
2018-02-15T00:19:08.132Z,61.19
2018-02-15T00:21:36.983Z,60.99
2018-02-15T00:24:02.836Z,61.12
2018-02-15T00:26:32.254Z,60.29
2018-02-15T00:28:58.094Z,60.52
2018-02-15T00:31:27.270Z,60.77
2018-02-15T00:33:53.125Z,60.49
2018-02-15T00:36:22.548Z,60.45
2018-02-15T00:38:48.427Z,60.60
2018-02-15T00:41:14.270Z,60.89
2018-02-15T00:43:40.148Z,61.07
2018-02-15T00:46:05.974Z,61.48
2018-02-15T00:48:33.093Z,61.61
2018-02-15T00:50:58.970Z,62.04
2018-02-15T00:53:28.520Z,61.86
2018-02-15T00:55:54.354Z,61.63
2018-02-15T00:58:23.676Z,61.26
2018-02-15T01:00:49.534Z,61.06
2018-02-15T01:03:18.567Z,61.07
2018-02-15T01:05:44.431Z,61.00
2018-02-15T01:08:13.443Z,60.76
2018-02-15T01:10:39.293Z,60.71
2018-02-15T01:13:06.128Z,60.94
2018-02-15T01:15:31.960Z,60.93
2018-02-15T01:17:57.818Z,61.05
2018-02-15T01:20:23.675Z,60.56
2018-02-15T01:22:49.501Z,60.66
2018-02-15T01:25:18.887Z,60.54
2018-02-15T01:27:44.744Z,60.47
2018-02-15T01:30:12.514Z,60.94
2018-02-15T01:32:38.357Z,61.12
2018-02-15T01:37:35.117Z,60.84
2018-02-15T01:40:02.034Z,60.56
2018-02-15T01:42:27.900Z,60.60
2018-02-15T01:47:24.661Z,60.62
2018-02-15T01:50:09.723Z,60.57
2018-02-15T01:52:35.591Z,61.03
2018-02-15T01:55:01.445Z,60.80
2018-02-15T01:57:27.338Z,60.82
2018-02-15T01:59:53.153Z,60.86
2018-02-15T02:02:19.046Z,60.55
2018-02-15T02:04:44.877Z,60.73
2018-02-15T02:07:10.715Z,60.85
2018-02-15T02:09:36.578Z,60.58
2018-02-15T02:12:02.408Z,60.43
2018-02-15T02:14:28.243Z,60.26
2018-02-15T02:16:54.074Z,60.40
2018-02-15T02:19:19.942Z,60.41
2018-02-15T02:21:45.782Z,60.08
2018-02-15T02:24:11.658Z,59.97
2018-02-15T02:26:37.497Z,59.84
2018-02-15T02:29:03.413Z,59.77
2018-02-15T02:31:29.265Z,60.06
2018-02-15T02:33:55.093Z,59.93
2018-02-15T02:36:20.955Z,59.92
2018-02-15T02:38:48.337Z,59.84
2018-02-15T02:41:14.157Z,60.10
2018-02-15T02:46:10.898Z,59.74
2018-02-15T02:48:38.271Z,59.74
2018-02-15T02:51:04.109Z,59.64
2018-02-15T02:53:32.861Z,60.09
2018-02-15T02:55:58.682Z,60.08
2018-02-15T02:58:28.974Z,60.27
2018-02-15T03:00:54.825Z,60.11
2018-02-15T03:03:22.480Z,60.13
2018-02-15T03:05:48.319Z,60.31
2018-02-15T03:08:14.161Z,59.68
2018-02-15T03:10:40.022Z,59.57
2018-02-15T03:13:05.864Z,59.50
2018-02-15T03:15:35.544Z,59.09
2018-02-15T03:18:01.375Z,58.94
2018-02-15T03:20:30.675Z,59.24
2018-02-15T03:22:56.516Z,58.81
2018-02-15T03:25:23.696Z,59.07
2018-02-15T03:27:49.563Z,59.35
2018-02-15T03:30:18.790Z,58.99
2018-02-15T03:32:44.659Z,58.80
2018-02-15T03:35:14.528Z,58.84
2018-02-15T03:37:40.389Z,58.83
2018-02-15T03:40:07.551Z,58.92
2018-02-15T03:42:33.393Z,58.75
2018-02-15T03:44:59.257Z,58.46
2018-02-15T03:47:25.093Z,58.84
2018-02-15T03:49:50.932Z,58.63
2018-02-15T03:52:20.356Z,58.48
2018-02-15T03:54:46.199Z,58.77
2018-02-15T03:57:15.657Z,59.04
2018-02-15T03:59:41.490Z,58.55
2018-02-15T04:02:09.175Z,58.69
2018-02-15T04:04:35.034Z,58.66
2018-02-15T04:07:04.522Z,58.74
2018-02-15T04:09:30.375Z,58.91
2018-02-15T04:11:59.640Z,58.86
2018-02-15T04:14:25.509Z,58.61
2018-02-15T04:16:54.457Z,59.29
2018-02-15T04:19:20.298Z,59.36
2018-02-15T04:21:46.161Z,59.24
2018-02-15T04:24:12.033Z,59.31
2018-02-15T04:26:37.875Z,59.30
2018-02-15T04:29:05.156Z,59.71
2018-02-15T04:31:30.992Z,59.63
2018-02-15T04:34:00.115Z,59.87
2018-02-15T04:36:25.958Z,59.97
2018-02-15T04:38:55.524Z,59.96
2018-02-15T04:41:21.343Z,59.67
2018-02-15T04:43:50.298Z,59.65
2018-02-15T04:46:16.146Z,59.76
2018-02-15T04:48:43.963Z,59.46
2018-02-15T04:51:09.821Z,59.49
2018-02-15T04:53:38.902Z,59.38
2018-02-15T04:56:04.803Z,59.43
2018-02-15T04:58:30.734Z,59.20
2018-02-15T05:00:56.587Z,59.18
2018-02-15T05:03:22.444Z,59.30
2018-02-15T05:05:49.749Z,59.50
2018-02-15T05:08:15.580Z,59.56
2018-02-15T05:10:44.744Z,59.22
2018-02-15T05:13:10.571Z,59.41
2018-02-15T05:15:39.664Z,59.12
2018-02-15T05:18:05.560Z,58.77
2018-02-15T05:20:34.492Z,58.55
2018-02-15T05:23:00.331Z,58.62
2018-02-15T05:25:29.463Z,58.37
2018-02-15T05:27:55.283Z,58.53
2018-02-15T05:30:24.329Z,58.70
2018-02-15T05:32:50.209Z,58.81
2018-02-15T05:35:16.068Z,58.91
2018-02-15T05:37:41.886Z,58.76
2018-02-15T05:40:07.752Z,58.83
2018-02-15T05:42:35.235Z,58.99
2018-02-15T05:45:01.077Z,58.45
2018-02-15T05:47:30.262Z,57.93
2018-02-15T05:49:56.121Z,58.00
2018-02-15T05:52:25.857Z,58.17
2018-02-15T05:54:51.719Z,58.46
2018-02-15T05:57:20.691Z,58.46
2018-02-15T05:59:46.539Z,58.02
2018-02-15T06:02:15.545Z,57.88
2018-02-15T06:04:41.372Z,57.77
2018-02-15T06:07:08.855Z,57.76
2018-02-15T06:09:34.753Z,57.45
2018-02-15T06:12:00.613Z,57.09
2018-02-15T06:14:26.486Z,57.03
2018-02-15T06:16:52.436Z,56.60
2018-02-15T06:19:21.427Z,56.34
2018-02-15T06:21:47.326Z,56.36
2018-02-15T06:24:14.933Z,55.94
2018-02-15T06:26:40.831Z,55.97
2018-02-15T06:31:37.665Z,55.80
2018-02-15T06:34:05.097Z,55.44
2018-02-15T06:36:31.020Z,55.64
2018-02-15T06:39:00.135Z,55.64
2018-02-15T06:41:26.022Z,55.87
2018-02-15T06:43:55.035Z,55.89
2018-02-15T06:46:20.938Z,56.37
2018-02-15T06:48:46.830Z,55.69
2018-02-15T06:51:12.709Z,55.60
2018-02-15T06:53:38.609Z,55.77
2018-02-15T06:56:06.039Z,55.77
2018-02-15T06:58:31.920Z,56.01
2018-02-15T07:01:00.857Z,55.86
2018-02-15T07:03:26.769Z,55.89
2018-02-15T07:05:55.989Z,55.80
2018-02-15T07:08:21.886Z,55.74
2018-02-15T07:10:50.909Z,55.80
2018-02-15T07:13:16.792Z,56.35
2018-02-15T07:15:45.820Z,56.71
2018-02-15T07:18:11.728Z,57.68
2018-02-15T07:20:40.950Z,58.92
2018-02-15T07:23:06.846Z,59.61
2018-02-15T07:25:32.742Z,61.25
2018-02-15T07:27:58.600Z,62.60
2018-02-15T07:30:24.479Z,64.57
2018-02-15T07:32:51.609Z,66.97
2018-02-15T07:35:17.487Z,68.73
2018-02-15T07:37:46.515Z,70.23
2018-02-15T07:40:12.421Z,71.10
2018-02-15T07:42:41.696Z,72.34
2018-02-15T07:45:07.572Z,73.36
2018-02-15T07:47:37.031Z,74.07
2018-02-15T07:50:02.958Z,73.76
2018-02-15T07:52:30.072Z,74.24
2018-02-15T07:54:55.990Z,73.70
2018-02-15T07:57:24.792Z,74.46
2018-02-15T07:59:50.688Z,75.16
2018-02-15T08:02:16.568Z,74.57
2018-02-15T08:04:42.468Z,74.69
2018-02-15T08:07:08.380Z,75.22
2018-02-15T08:09:36.269Z,75.86
2018-02-15T08:12:02.152Z,76.81
2018-02-15T08:14:31.840Z,77.74
2018-02-15T08:16:57.705Z,78.70
2018-02-15T08:19:27.293Z,79.85
2018-02-15T08:21:53.150Z,81.08
2018-02-15T08:24:22.259Z,83.09
2018-02-15T08:26:48.144Z,83.82
2018-02-15T08:29:17.117Z,84.24
2018-02-15T08:31:42.981Z,84.12
2018-02-15T08:34:10.337Z,84.35
2018-02-15T08:36:36.225Z,84.45
2018-02-15T08:39:02.135Z,84.34
2018-02-15T08:41:28.050Z,84.17
2018-02-15T08:43:53.909Z,84.32
2018-02-15T08:46:23.342Z,84.95
2018-02-15T08:48:49.261Z,84.67
2018-02-15T08:51:16.816Z,84.60
2018-02-15T08:53:42.727Z,84.39
2018-02-15T08:56:12.314Z,85.34
2018-02-15T08:58:38.181Z,85.68
2018-02-15T09:01:07.558Z,85.89
2018-02-15T09:03:33.562Z,85.45
2018-02-15T09:06:00.536Z,85.79
2018-02-15T09:08:26.403Z,86.18
2018-02-15T09:10:55.723Z,87.02
2018-02-15T09:13:21.654Z,87.66
2018-02-15T09:15:47.555Z,87.86
2018-02-15T09:18:13.468Z,87.35
2018-02-15T09:20:39.375Z,87.41
2018-02-15T09:23:07.206Z,86.82
2018-02-15T09:25:33.070Z,87.01
2018-02-15T09:28:01.738Z,86.58
2018-02-15T09:30:27.648Z,86.95
2018-02-15T09:32:56.380Z,86.41
2018-02-15T09:35:22.261Z,86.60
2018-02-15T09:37:51.648Z,86.68
2018-02-15T09:40:17.547Z,86.78
2018-02-15T09:42:46.700Z,86.52
2018-02-15T09:45:12.565Z,86.50
2018-02-15T09:47:42.072Z,86.25
2018-02-15T09:50:07.996Z,86.35
2018-02-15T09:52:33.892Z,85.73
2018-02-15T09:54:59.812Z,86.13
2018-02-15T09:57:25.689Z,86.04
2018-02-15T09:59:53.102Z,85.69
2018-02-15T10:02:18.990Z,85.08
2018-02-15T10:04:47.965Z,85.33
2018-02-15T10:07:13.857Z,84.95
2018-02-15T10:09:43.076Z,85.20
2018-02-15T10:12:08.987Z,84.79
2018-02-15T10:14:36.672Z,85.43
2018-02-15T10:17:02.579Z,85.12
2018-02-15T10:19:31.862Z,85.06
2018-02-15T10:21:57.759Z,84.50
2018-02-15T10:24:26.956Z,84.74
2018-02-15T10:26:52.833Z,84.31
2018-02-15T10:29:18.728Z,83.91
2018-02-15T10:31:44.611Z,83.73
2018-02-15T10:34:10.494Z,83.60
2018-02-15T10:36:37.553Z,83.37
2018-02-15T10:39:03.477Z,83.55
2018-02-15T10:41:32.338Z,83.32
2018-02-15T10:43:58.242Z,83.73
2018-02-15T10:46:26.965Z,84.09
2018-02-15T10:48:52.853Z,84.01
2018-02-15T10:51:22.570Z,84.56
2018-02-15T10:53:48.458Z,84.98
2018-02-15T10:56:17.987Z,84.91
2018-02-15T10:58:43.893Z,85.22
2018-02-15T11:01:17.658Z,85.36
2018-02-15T11:03:43.581Z,85.70
2018-02-15T11:06:09.436Z,85.31
2018-02-15T11:08:35.349Z,85.54
2018-02-15T11:11:01.226Z,85.39
2018-02-15T11:13:27.130Z,86.29
2018-02-15T11:15:53.019Z,85.27
2018-02-15T11:18:18.898Z,85.78
2018-02-15T11:20:44.791Z,85.86
2018-02-15T11:23:12.395Z,85.72
2018-02-15T11:25:38.305Z,85.32
2018-02-15T11:28:07.142Z,85.65
2018-02-15T11:30:33.057Z,85.59
2018-02-15T11:33:01.764Z,85.43
2018-02-15T11:35:27.667Z,85.49
2018-02-15T11:37:57.141Z,85.82
2018-02-15T11:40:23.066Z,85.21
2018-02-15T11:42:48.935Z,85.89
2018-02-15T11:45:14.798Z,85.88
2018-02-15T11:47:40.781Z,86.52
2018-02-15T11:50:08.129Z,86.43
2018-02-15T11:52:34.062Z,86.30
2018-02-15T11:55:03.468Z,86.92
2018-02-15T11:57:29.357Z,86.87
2018-02-15T11:59:58.797Z,86.39
2018-02-15T12:02:24.690Z,86.78
2018-02-15T12:04:52.296Z,86.56
2018-02-15T12:07:18.191Z,86.35
2018-02-15T12:09:47.373Z,85.73
2018-02-15T12:12:13.305Z,85.91
2018-02-15T12:14:42.907Z,85.87
2018-02-15T12:17:08.818Z,86.15
2018-02-15T12:19:34.707Z,86.45
2018-02-15T12:22:00.602Z,86.05
2018-02-15T12:24:26.514Z,86.28
2018-02-15T12:26:53.952Z,85.45
2018-02-15T12:29:19.866Z,84.91
2018-02-15T12:31:49.601Z,85.24
2018-02-15T12:34:15.503Z,85.72
2018-02-15T12:36:44.730Z,85.88
2018-02-15T12:39:10.647Z,86.08
2018-02-15T12:41:37.673Z,86.18
2018-02-15T12:44:03.562Z,86.14
2018-02-15T12:46:32.233Z,86.65
2018-02-15T12:48:58.204Z,86.71
2018-02-15T12:51:27.605Z,86.78
2018-02-15T12:53:53.548Z,87.37
2018-02-15T12:56:19.446Z,88.14
2018-02-15T12:58:45.317Z,88.14
2018-02-15T13:01:11.209Z,87.93
2018-02-15T13:03:38.696Z,87.50
2018-02-15T13:06:04.605Z,88.00
2018-02-15T13:08:34.024Z,88.29
2018-02-15T13:10:59.914Z,88.13
2018-02-15T13:13:30.817Z,88.36
2018-02-15T13:16:09.047Z,88.79
2018-02-15T13:18:34.943Z,88.59
2018-02-15T13:21:00.858Z,89.13
2018-02-15T13:23:26.766Z,88.47
2018-02-15T13:25:52.694Z,89.01
2018-02-15T13:28:29.780Z,88.50
2018-02-15T13:30:55.665Z,88.42
2018-02-15T13:33:21.553Z,88.74
2018-02-15T13:35:47.433Z,87.95
2018-02-15T13:38:13.294Z,87.95
2018-02-15T13:40:39.190Z,87.11
2018-02-15T13:43:05.088Z,87.38
2018-02-15T13:45:30.968Z,87.45
2018-02-15T13:47:56.859Z,86.39
2018-02-15T13:50:22.754Z,86.71
2018-02-15T13:52:48.670Z,87.06
2018-02-15T13:55:14.582Z,87.59
2018-02-15T13:57:40.448Z,87.42
2018-02-15T14:00:06.339Z,87.96
2018-02-15T14:02:32.210Z,88.19
2018-02-15T14:04:58.099Z,87.50
2018-02-15T14:07:23.951Z,87.71
2018-02-15T14:09:49.847Z,87.43
2018-02-15T14:12:15.779Z,87.33
2018-02-15T14:14:41.684Z,87.71
2018-02-15T14:17:11.420Z,87.09
2018-02-15T14:19:37.295Z,86.92
2018-02-15T14:22:04.290Z,87.40
2018-02-15T14:24:30.165Z,87.50
2018-02-15T14:26:58.967Z,86.87
2018-02-15T14:29:24.858Z,86.80
2018-02-15T14:31:54.514Z,86.43
2018-02-15T14:34:20.389Z,86.18
2018-02-15T14:36:49.918Z,86.35
2018-02-15T14:39:15.809Z,86.69
2018-02-15T14:41:44.874Z,87.12
2018-02-15T14:44:10.774Z,86.72
2018-02-15T14:46:36.646Z,86.88
2018-02-15T14:49:02.542Z,86.81
2018-02-15T14:51:28.430Z,86.87
2018-02-15T14:53:54.916Z,87.28
2018-02-15T14:56:20.790Z,87.10
2018-02-15T14:58:50.269Z,87.47
2018-02-15T15:01:16.144Z,87.72
2018-02-15T15:03:45.309Z,87.74
2018-02-15T15:06:11.203Z,87.75
2018-02-15T15:08:40.577Z,88.00
2018-02-15T15:11:06.483Z,88.15
2018-02-15T15:13:33.650Z,88.24
2018-02-15T15:15:59.526Z,88.67
2018-02-15T15:18:28.899Z,88.77
2018-02-15T15:20:54.818Z,88.85
2018-02-15T15:23:20.715Z,88.45
2018-02-15T15:25:46.614Z,88.46
2018-02-15T15:28:12.465Z,88.29
2018-02-15T15:30:39.831Z,88.42
2018-02-15T15:33:05.705Z,88.83
2018-02-15T15:38:02.466Z,88.57
2018-02-15T15:40:30.046Z,88.68
2018-02-15T15:42:55.933Z,88.69
2018-02-15T15:45:25.108Z,88.56
2018-02-15T15:47:51.024Z,88.64
2018-02-15T15:50:20.343Z,88.42
2018-02-15T15:52:46.238Z,88.45
2018-02-15T15:55:13.558Z,88.36
2018-02-15T15:57:39.430Z,88.46
2018-02-15T16:00:05.347Z,88.75
2018-02-15T16:02:31.252Z,88.82
2018-02-15T16:04:57.138Z,88.90
2018-02-15T16:07:26.839Z,89.05
2018-02-15T16:09:52.722Z,89.27
2018-02-15T16:12:21.783Z,89.32
2018-02-15T16:14:47.680Z,89.18
2018-02-15T16:17:15.602Z,89.26
2018-02-15T16:19:41.465Z,89.45
2018-02-15T16:22:10.751Z,89.46
2018-02-15T16:24:36.627Z,89.84
2018-02-15T16:27:05.927Z,89.92
2018-02-15T16:29:31.809Z,90.02
2018-02-15T16:31:58.857Z,90.12
2018-02-15T16:34:24.764Z,90.16
2018-02-15T16:36:50.628Z,89.84
2018-02-15T16:39:16.514Z,89.67
2018-02-15T16:41:42.422Z,89.43
2018-02-15T16:44:11.991Z,89.47
2018-02-15T16:46:37.894Z,89.27
2018-02-15T16:49:07.039Z,89.32
2018-02-15T16:51:32.899Z,89.21
2018-02-15T16:54:00.293Z,89.20
2018-02-15T16:56:26.178Z,89.24
2018-02-15T16:58:55.361Z,88.98
2018-02-15T17:01:21.283Z,88.92
2018-02-15T17:03:50.534Z,89.13
2018-02-15T17:06:16.451Z,89.30
2018-02-15T17:08:46.094Z,89.34
2018-02-15T17:11:12.043Z,89.35
2018-02-15T17:13:37.916Z,89.17
2018-02-15T17:16:03.798Z,89.44
2018-02-15T17:18:29.682Z,89.61
2018-02-15T17:20:55.860Z,89.48
2018-02-15T17:23:21.742Z,89.41
2018-02-15T17:25:50.671Z,89.66
2018-02-15T17:28:16.548Z,89.50
2018-02-15T17:30:46.402Z,89.61
2018-02-15T17:33:12.299Z,89.97
2018-02-15T17:35:41.883Z,89.97
2018-02-15T17:38:07.795Z,90.10
2018-02-15T17:40:35.212Z,90.19
2018-02-15T17:43:01.091Z,90.09
2018-02-15T17:45:30.039Z,89.95
2018-02-15T17:47:55.918Z,89.80
2018-02-15T17:50:21.798Z,89.89
2018-02-15T17:52:47.670Z,89.78
2018-02-15T17:55:13.544Z,89.77
2018-02-15T17:57:42.475Z,89.81
2018-02-15T18:00:08.359Z,89.68
2018-02-15T18:02:37.698Z,89.67
2018-02-15T18:05:03.560Z,89.51
2018-02-15T18:07:31.225Z,89.29
2018-02-15T18:09:57.123Z,89.18
2018-02-15T18:12:26.833Z,89.04
2018-02-15T18:14:52.721Z,89.29
2018-02-15T18:17:21.907Z,89.35
2018-02-15T18:19:47.786Z,89.31
2018-02-15T18:22:14.984Z,89.46
2018-02-15T18:24:40.851Z,89.48
2018-02-15T18:27:06.741Z,89.66
2018-02-15T18:29:32.612Z,89.42
2018-02-15T18:31:58.489Z,89.34
2018-02-15T18:34:27.510Z,89.13
2018-02-15T18:36:53.404Z,89.32
2018-02-15T18:39:22.843Z,89.57
2018-02-15T18:41:48.712Z,89.69
2018-02-15T18:44:16.442Z,89.64
2018-02-15T18:46:42.362Z,89.56
2018-02-15T18:49:11.791Z,89.69
2018-02-15T18:51:37.736Z,89.96
2018-02-15T18:54:06.828Z,89.83
2018-02-15T18:56:32.702Z,89.68
2018-02-15T18:59:01.830Z,89.47
2018-02-15T19:01:27.706Z,89.48
2018-02-15T19:03:53.696Z,89.63
2018-02-15T19:06:19.653Z,89.69
2018-02-15T19:08:45.563Z,89.71
2018-02-15T19:11:11.797Z,89.61
2018-02-15T19:13:37.691Z,89.56
2018-02-15T19:16:06.716Z,89.14
2018-02-15T19:18:32.626Z,89.05
2018-02-15T19:21:01.444Z,88.69
2018-02-15T19:23:27.315Z,88.49
2018-02-15T19:25:56.167Z,88.21
2018-02-15T19:28:22.046Z,88.01
2018-02-15T19:30:51.922Z,88.17
2018-02-15T19:33:17.827Z,88.19
2018-02-15T19:35:45.671Z,88.44
2018-02-15T19:38:11.520Z,88.97
2018-02-15T19:40:37.412Z,89.10
2018-02-15T19:43:03.286Z,89.17
2018-02-15T19:45:29.159Z,89.20
2018-02-15T19:47:58.595Z,88.93
2018-02-15T19:50:24.486Z,88.93
2018-02-15T19:52:52.049Z,88.93
2018-02-15T19:55:17.902Z,89.18
2018-02-15T19:57:46.638Z,89.14
2018-02-15T20:00:12.501Z,88.88
2018-02-15T20:02:41.198Z,89.01
2018-02-15T20:05:07.153Z,88.75
2018-02-15T20:07:36.700Z,88.42
2018-02-15T20:10:02.578Z,88.19
2018-02-15T20:12:32.186Z,88.19
2018-02-15T20:14:58.085Z,88.70
2018-02-15T20:17:24.003Z,88.68
2018-02-15T20:19:56.028Z,88.45
2018-02-15T20:22:21.928Z,88.35
2018-02-15T20:24:47.848Z,88.30
2018-02-15T20:27:19.869Z,88.27
2018-02-15T20:29:45.753Z,88.33
2018-02-15T20:32:11.651Z,88.17
2018-02-15T20:34:37.543Z,88.07
2018-02-15T20:37:03.452Z,88.05
2018-02-15T20:39:35.534Z,88.19
2018-02-15T20:42:01.436Z,88.21
2018-02-15T20:44:27.334Z,88.12
2018-02-15T20:46:53.234Z,88.39
2018-02-15T20:49:25.145Z,88.15
2018-02-15T20:51:57.184Z,88.52
2018-02-15T20:54:29.288Z,88.58
2018-02-15T20:56:55.259Z,88.01
2018-02-15T20:59:21.148Z,88.26
2018-02-15T21:01:47.066Z,88.08
2018-02-15T21:04:12.934Z,88.08
2018-02-15T21:06:38.838Z,88.31
2018-02-15T21:09:05.554Z,88.16
2018-02-15T21:11:31.461Z,88.09
2018-02-15T21:13:57.384Z,88.02
2018-02-15T21:16:23.262Z,88.30
2018-02-15T21:18:49.155Z,88.33
2018-02-15T21:21:15.034Z,88.25
2018-02-15T21:23:40.894Z,88.37
2018-02-15T21:26:06.818Z,88.17
2018-02-15T21:28:32.685Z,88.13
2018-02-15T21:30:58.565Z,88.00
2018-02-15T21:33:24.757Z,88.02
2018-02-15T21:35:50.675Z,87.75
2018-02-15T21:38:16.585Z,87.71
2018-02-15T21:40:42.569Z,87.81
2018-02-15T21:43:08.469Z,87.80
2018-02-15T21:45:34.362Z,87.90
2018-02-15T21:48:04.068Z,87.81
2018-02-15T21:50:29.972Z,87.55
2018-02-15T21:52:57.370Z,87.55
2018-02-15T21:55:23.255Z,88.05
2018-02-15T21:57:52.152Z,88.00
2018-02-15T22:00:18.051Z,88.19
2018-02-15T22:02:47.621Z,88.62
2018-02-15T22:05:13.485Z,89.02
2018-02-15T22:07:39.362Z,89.16
2018-02-15T22:10:05.246Z,89.14
2018-02-15T22:12:31.131Z,89.01
2018-02-15T22:14:58.658Z,88.89
2018-02-15T22:17:24.577Z,88.88
2018-02-15T22:19:54.205Z,89.02
2018-02-15T22:22:20.082Z,89.21
2018-02-15T22:24:48.923Z,88.51
2018-02-15T22:27:14.762Z,89.05
2018-02-15T22:29:44.047Z,89.46
2018-02-15T22:32:09.869Z,89.85
2018-02-15T22:34:39.068Z,90.04
2018-02-15T22:37:04.900Z,90.31
2018-02-15T22:39:31.873Z,90.61
2018-02-15T22:41:57.727Z,90.83
2018-02-15T22:44:23.590Z,91.04
2018-02-15T22:46:49.451Z,91.25
2018-02-15T22:49:15.334Z,91.39
2018-02-15T22:51:44.361Z,92.15
2018-02-15T22:54:10.223Z,92.27
2018-02-15T22:56:39.637Z,92.53
2018-02-15T22:59:05.494Z,93.00
2018-02-15T23:01:34.833Z,93.22
2018-02-15T23:04:00.682Z,93.16
2018-02-15T23:06:27.870Z,93.06
2018-02-15T23:08:53.691Z,92.81
2018-02-15T23:11:22.469Z,92.88
2018-02-15T23:13:48.312Z,92.92
2018-02-15T23:18:45.088Z,92.78
2018-02-15T23:21:10.967Z,92.56
2018-02-15T23:23:36.803Z,92.91
2018-02-15T23:26:02.723Z,92.91
2018-02-15T23:28:29.634Z,92.84
2018-02-15T23:30:55.487Z,92.56
2018-02-15T23:33:24.977Z,92.48
2018-02-15T23:35:50.845Z,92.52
2018-02-15T23:38:20.029Z,92.64
2018-02-15T23:40:45.892Z,92.32
2018-02-15T23:43:14.865Z,92.36
2018-02-15T23:45:40.697Z,92.18
2018-02-15T23:48:07.897Z,92.10
2018-02-15T23:50:33.764Z,92.31
2018-02-15T23:53:02.694Z,92.07
2018-02-15T23:55:28.520Z,91.96
2018-02-15T23:57:54.378Z,91.95
